Time;durP1;ratioP1;P1;durP2;ratioP2;P2;SDS_P1;SDS_P2;PMS_P1;PMS_P2;Temp;Humidity;BMP_temperature;BMP_pressure;BME280_temperature;BME280_humidity;BME280_pressure;Samples;Min_cycle;Max_cycle;Signal;HPM_P1;HPM_P2
2022/06/16 00:00:08;;;;;;;7.15;3.20;;;;;;;;;;4985138;28;20263;-61
2022/06/16 00:02:38;;;;;;;5.97;3.22;;;;;;;;;;4986024;28;20220;-60
2022/06/16 00:05:05;;;;;;;7.15;3.10;;;;;;;;;;4987104;28;20231;-61
2022/06/16 00:07:30;;;;;;;7.03;3.20;;;;;;;;;;4985959;28;20215;-60
2022/06/16 00:09:55;;;;;;;6.30;2.90;;;;;;;;;;4989463;28;20221;-61
2022/06/16 00:12:21;;;;;;;5.40;3.10;;;;;;;;;;4986572;28;20224;-60
2022/06/16 00:14:46;;;;;;;6.90;3.20;;;;;;;;;;4980718;28;20225;-60
2022/06/16 00:17:11;;;;;;;6.90;3.00;;;;;;;;;;4977460;28;20585;-61
2022/06/16 00:19:37;;;;;;;5.97;2.85;;;;;;;;;;4978424;28;20336;-60
2022/06/16 00:22:02;;;;;;;6.28;2.97;;;;;;;;;;4993457;28;20244;-60
2022/06/16 00:24:27;;;;;;;8.43;3.75;;;;;;;;;;5000784;28;20232;-61
2022/06/16 00:26:53;;;;;;;9.55;3.75;;;;;;;;;;4986144;28;20221;-60
2022/06/16 00:29:19;;;;;;;7.95;2.90;;;;;;;;;;4985463;28;20221;-61
2022/06/16 00:31:44;;;;;;;10.40;3.67;;;;;;;;;;4994206;28;20295;-60
2022/06/16 00:34:09;;;;;;;6.20;3.28;;;;;;;;;;4985111;28;20236;-60
2022/06/16 00:36:37;;;;;;;6.60;2.90;;;;;;;;;;4982162;28;20740;-60
2022/06/16 00:39:03;;;;;;;6.68;3.10;;;;;;;;;;4984706;28;20683;-60
2022/06/16 00:41:28;;;;;;;5.43;3.00;;;;;;;;;;4977769;28;20213;-60
2022/06/16 00:43:57;;;;;;;5.85;3.05;;;;;;;;;;4989676;28;20217;-60
2022/06/16 00:46:23;;;;;;;5.78;3.05;;;;;;;;;;5003536;28;20745;-60
2022/06/16 00:48:51;;;;;;;6.30;2.80;;;;;;;;;;4994350;28;20229;-60
2022/06/16 00:51:34;;;;;;;7.70;3.33;;;;;;;;;;5003222;28;20680;-60
2022/06/16 00:54:02;;;;;;;8.15;3.03;;;;;;;;;;4988660;28;20228;-60
2022/06/16 00:56:27;;;;;;;7.70;3.03;;;;;;;;;;5004071;28;20230;-60
2022/06/16 00:58:53;;;;;;;8.32;3.13;;;;;;;;;;4983778;28;20601;-60
2022/06/16 01:01:20;;;;;;;6.90;3.03;;;;;;;;;;5002075;28;20221;-60
2022/06/16 01:06:29;;;;;;;8.38;3.25;;;;;;;;;;4998077;28;20247;-60
2022/06/16 01:08:59;;;;;;;7.38;3.00;;;;;;;;;;4993465;28;20244;-60
2022/06/16 01:14:21;;;;;;;10.32;3.17;;;;;;;;;;4997150;28;20227;-60
2022/06/16 01:16:46;;;;;;;7.50;3.40;;;;;;;;;;5017441;28;20212;-61
2022/06/16 01:19:23;;;;;;;9.25;3.25;;;;;;;;;;4984234;28;20438;-60
2022/06/16 01:21:52;;;;;;;8.10;3.47;;;;;;;;;;5006803;28;20227;-60
2022/06/16 01:24:27;;;;;;;6.43;3.20;;;;;;;;;;4978611;28;20766;-60
2022/06/16 01:26:59;;;;;;;6.45;3.00;;;;;;;;;;5010314;28;20238;-60
2022/06/16 01:29:49;;;;;;;8.10;3.28;;;;;;;;;;4999474;28;20726;-60
2022/06/16 01:32:27;;;;;;;4.65;2.90;;;;;;;;;;4987727;28;20213;-60
2022/06/16 01:34:56;;;;;;;8.15;3.30;;;;;;;;;;4984456;28;20232;-60
2022/06/16 01:37:22;;;;;;;6.63;3.40;;;;;;;;;;5017785;28;20221;-60
2022/06/16 01:39:57;;;;;;;9.27;2.95;;;;;;;;;;5001218;28;20224;-60
2022/06/16 01:42:28;;;;;;;10.15;3.28;;;;;;;;;;5003247;28;20259;-60
2022/06/16 01:44:56;;;;;;;8.63;3.15;;;;;;;;;;4996116;28;20900;-60
2022/06/16 01:47:22;;;;;;;7.78;3.30;;;;;;;;;;4994371;28;20208;-60
2022/06/16 01:49:50;;;;;;;11.00;3.28;;;;;;;;;;4993817;28;20472;-61
2022/06/16 01:52:19;;;;;;;8.15;3.03;;;;;;;;;;5008558;28;20680;-62
2022/06/16 01:54:47;;;;;;;9.65;3.20;;;;;;;;;;5018200;28;20335;-61
2022/06/16 01:57:14;;;;;;;9.20;3.35;;;;;;;;;;5017392;28;20295;-61
2022/06/16 01:59:42;;;;;;;8.85;3.40;;;;;;;;;;5001251;28;20319;-61
2022/06/16 02:02:08;;;;;;;7.53;3.50;;;;;;;;;;5016665;28;20713;-61
2022/06/16 02:04:38;;;;;;;6.68;3.28;;;;;;;;;;5001969;28;20813;-61
2022/06/16 02:07:05;;;;;;;7.72;3.78;;;;;;;;;;5012623;28;20313;-61
2022/06/16 02:09:32;;;;;;;6.88;3.60;;;;;;;;;;4995102;28;20731;-61
2022/06/16 02:11:58;;;;;;;6.85;3.47;;;;;;;;;;5006373;28;20830;-61
2022/06/16 02:14:26;;;;;;;7.13;3.20;;;;;;;;;;4991571;28;20303;-61
2022/06/16 02:16:51;;;;;;;10.85;3.60;;;;;;;;;;5000526;28;20216;-61
2022/06/16 02:19:17;;;;;;;5.88;3.72;;;;;;;;;;4983587;28;20220;-61
2022/06/16 02:21:45;;;;;;;9.20;3.67;;;;;;;;;;5017179;28;20295;-61
2022/06/16 02:24:13;;;;;;;8.18;3.45;;;;;;;;;;4990241;28;20307;-61
2022/06/16 02:26:38;;;;;;;6.18;3.10;;;;;;;;;;5002366;28;20252;-61
2022/06/16 02:29:22;;;;;;;7.78;3.58;;;;;;;;;;5006286;28;20260;-62
2022/06/16 02:32:03;;;;;;;7.90;3.40;;;;;;;;;;4983905;28;20217;-61
2022/06/16 02:34:33;;;;;;;7.60;3.83;;;;;;;;;;4980168;28;20309;-60
2022/06/16 02:37:05;;;;;;;7.13;3.47;;;;;;;;;;4996092;28;20232;-60
2022/06/16 02:39:31;;;;;;;6.82;3.53;;;;;;;;;;4986702;28;20224;-61
2022/06/16 02:42:15;;;;;;;7.18;3.50;;;;;;;;;;4983363;28;20758;-60
2022/06/16 02:44:51;;;;;;;8.15;3.50;;;;;;;;;;4985635;28;20221;-61
2022/06/16 02:47:43;;;;;;;6.80;3.28;;;;;;;;;;5002112;28;20323;-60
2022/06/16 02:50:08;;;;;;;5.53;3.40;;;;;;;;;;4995422;28;20225;-61
2022/06/16 02:52:37;;;;;;;6.28;3.53;;;;;;;;;;4994798;28;20220;-61
2022/06/16 02:55:14;;;;;;;6.78;3.60;;;;;;;;;;5009254;28;20311;-60
2022/06/16 02:57:45;;;;;;;7.03;3.38;;;;;;;;;;5008450;28;20264;-60
2022/06/16 03:00:12;;;;;;;6.18;3.70;;;;;;;;;;4978267;28;20744;-62
2022/06/16 03:02:38;;;;;;;6.07;3.53;;;;;;;;;;4982635;28;20220;-61
2022/06/16 03:05:05;;;;;;;6.90;3.60;;;;;;;;;;4982088;28;20212;-61
2022/06/16 03:07:33;;;;;;;8.75;4.03;;;;;;;;;;4982879;28;20260;-61
2022/06/16 03:09:59;;;;;;;6.85;3.80;;;;;;;;;;4982780;28;20221;-61
2022/06/16 03:12:24;;;;;;;7.90;3.72;;;;;;;;;;4982309;28;20535;-61
2022/06/16 03:14:50;;;;;;;6.75;4.20;;;;;;;;;;4980984;28;20252;-61
2022/06/16 03:17:15;;;;;;;7.93;3.65;;;;;;;;;;4973523;28;20209;-62
2022/06/16 03:19:41;;;;;;;7.43;3.58;;;;;;;;;;4977641;28;20631;-61
2022/06/16 03:22:06;;;;;;;9.30;3.70;;;;;;;;;;4976107;28;20209;-61
2022/06/16 03:24:32;;;;;;;6.40;3.40;;;;;;;;;;4982565;28;20255;-61
2022/06/16 03:26:57;;;;;;;6.47;3.47;;;;;;;;;;4981903;28;20213;-61
2022/06/16 03:29:22;;;;;;;6.90;3.40;;;;;;;;;;4982364;28;20220;-61
2022/06/16 03:31:48;;;;;;;29.33;4.63;;;;;;;;;;4982310;28;20303;-61
2022/06/16 03:34:13;;;;;;;7.65;3.80;;;;;;;;;;4982070;28;20597;-60
2022/06/16 03:36:39;;;;;;;8.35;3.80;;;;;;;;;;5001082;28;20707;-60
2022/06/16 03:39:04;;;;;;;5.78;3.88;;;;;;;;;;4999695;28;20299;-60
2022/06/16 03:41:30;;;;;;;15.07;4.15;;;;;;;;;;4987303;28;20224;-60
2022/06/16 03:43:55;;;;;;;5.95;3.78;;;;;;;;;;4976384;28;20355;-60
2022/06/16 03:46:20;;;;;;;6.05;3.83;;;;;;;;;;4979712;28;20258;-60
2022/06/16 03:48:46;;;;;;;7.93;3.85;;;;;;;;;;4982321;28;20287;-61
2022/06/16 03:51:12;;;;;;;8.30;4.18;;;;;;;;;;4981874;28;20578;-61
2022/06/16 03:53:37;;;;;;;7.95;4.00;;;;;;;;;;4981919;28;20258;-61
2022/06/16 03:56:03;;;;;;;16.87;4.70;;;;;;;;;;4981961;28;20479;-61
2022/06/16 03:58:28;;;;;;;7.38;3.95;;;;;;;;;;4982793;28;20311;-60
2022/06/16 04:00:53;;;;;;;8.82;3.85;;;;;;;;;;4977992;28;20229;-60
2022/06/16 04:06:03;;;;;;;7.32;3.72;;;;;;;;;;4975351;28;20738;-61
2022/06/16 04:08:28;;;;;;;8.15;3.42;;;;;;;;;;4978717;28;20244;-61
2022/06/16 04:10:54;;;;;;;10.65;4.05;;;;;;;;;;4982351;28;20233;-61
2022/06/16 04:13:19;;;;;;;15.32;4.13;;;;;;;;;;4983620;28;20660;-60
2022/06/16 04:15:45;;;;;;;6.68;3.67;;;;;;;;;;4981665;28;20261;-60
2022/06/16 04:18:10;;;;;;;8.90;3.63;;;;;;;;;;4981374;28;20209;-60
2022/06/16 04:20:35;;;;;;;8.02;3.78;;;;;;;;;;4982380;28;20691;-59
2022/06/16 04:23:01;;;;;;;8.38;4.18;;;;;;;;;;4978703;28;20213;-60
2022/06/16 04:28:12;;;;;;;8.00;3.83;;;;;;;;;;4974043;28;20243;-60
2022/06/16 04:30:37;;;;;;;8.13;3.92;;;;;;;;;;4976663;28;20209;-60
2022/06/16 04:33:03;;;;;;;8.90;4.80;;;;;;;;;;4981983;28;20213;-60
2022/06/16 04:35:28;;;;;;;5.78;3.88;;;;;;;;;;4982149;28;20224;-60
2022/06/16 04:37:54;;;;;;;7.93;4.20;;;;;;;;;;4983458;28;20263;-59
2022/06/16 04:40:20;;;;;;;8.18;4.10;;;;;;;;;;4985159;28;20296;-60
2022/06/16 04:42:45;;;;;;;17.38;3.92;;;;;;;;;;4986066;28;20321;-60
2022/06/16 04:45:11;;;;;;;9.23;3.50;;;;;;;;;;4996940;28;20682;-61
2022/06/16 04:47:37;;;;;;;7.43;3.17;;;;;;;;;;5013640;28;20248;-60
2022/06/16 04:50:02;;;;;;;12.20;4.13;;;;;;;;;;5004864;28;20612;-61
2022/06/16 04:52:27;;;;;;;7.35;3.30;;;;;;;;;;4996252;28;20217;-60
2022/06/16 04:54:53;;;;;;;9.73;3.58;;;;;;;;;;4994031;28;20221;-59
2022/06/16 04:57:18;;;;;;;7.43;3.63;;;;;;;;;;4993568;28;20217;-60
2022/06/16 04:59:44;;;;;;;10.00;3.80;;;;;;;;;;4994575;28;20216;-60
2022/06/16 05:02:09;;;;;;;11.50;4.75;;;;;;;;;;4993505;28;20233;-60
2022/06/16 05:04:35;;;;;;;9.18;4.00;;;;;;;;;;4994292;28;20209;-60
2022/06/16 05:07:01;;;;;;;7.93;3.90;;;;;;;;;;4994382;28;20225;-62
2022/06/16 05:09:26;;;;;;;8.02;4.25;;;;;;;;;;4994322;28;20213;-60
2022/06/16 05:11:52;;;;;;;8.90;4.38;;;;;;;;;;4993740;28;20300;-61
2022/06/16 05:14:17;;;;;;;9.48;4.32;;;;;;;;;;5010661;28;20222;-61
2022/06/16 05:16:42;;;;;;;9.02;4.03;;;;;;;;;;5013345;28;20214;-60
2022/06/16 05:19:07;;;;;;;6.82;4.43;;;;;;;;;;5012828;28;20215;-60
2022/06/16 05:21:33;;;;;;;7.18;3.90;;;;;;;;;;5014118;28;20213;-60
2022/06/16 05:23:58;;;;;;;10.45;4.35;;;;;;;;;;5013668;28;20220;-60
2022/06/16 05:26:24;;;;;;;10.65;4.22;;;;;;;;;;5012511;28;20632;-61
2022/06/16 05:28:49;;;;;;;6.60;3.42;;;;;;;;;;5013341;28;20204;-61
2022/06/16 05:31:14;;;;;;;9.32;3.45;;;;;;;;;;5012897;28;20216;-60
2022/06/16 05:33:39;;;;;;;7.13;3.38;;;;;;;;;;5013144;28;20205;-61
2022/06/16 05:36:06;;;;;;;5.53;2.80;;;;;;;;;;5012967;28;20267;-61
2022/06/16 05:38:31;;;;;;;6.97;2.80;;;;;;;;;;5013670;28;20201;-60
2022/06/16 05:40:57;;;;;;;12.13;3.55;;;;;;;;;;5012904;28;20350;-60
2022/06/16 05:43:22;;;;;;;8.63;3.38;;;;;;;;;;5012271;28;20212;-61
2022/06/16 05:45:48;;;;;;;8.05;3.33;;;;;;;;;;5030806;28;20263;-60
2022/06/16 05:48:13;;;;;;;7.15;3.58;;;;;;;;;;5025420;28;20215;-61
2022/06/16 05:50:38;;;;;;;7.60;3.72;;;;;;;;;;5012124;28;20271;-61
2022/06/16 05:53:04;;;;;;;40.65;6.35;;;;;;;;;;5005201;28;20569;-61
2022/06/16 05:55:29;;;;;;;9.05;2.70;;;;;;;;;;5011399;28;20223;-61
2022/06/16 05:57:54;;;;;;;9.18;3.47;;;;;;;;;;5012750;28;20685;-61
2022/06/16 06:00:20;;;;;;;11.70;3.47;;;;;;;;;;5011574;28;20236;-61
2022/06/16 06:02:45;;;;;;;7.65;2.90;;;;;;;;;;5013073;28;20287;-61
2022/06/16 06:05:11;;;;;;;4.43;2.50;;;;;;;;;;5012480;28;20212;-61
2022/06/16 06:18:35;;;;;;;9.63;3.95;;;;;;;;;;5012124;28;20219;-61
2022/06/16 06:21:00;;;;;;;6.28;2.70;;;;;;;;;;5012483;28;20299;-60
2022/06/16 06:23:26;;;;;;;7.70;2.83;;;;;;;;;;5012023;28;20208;-60
2022/06/16 06:25:51;;;;;;;5.00;2.47;;;;;;;;;;5012491;28;20212;-61
2022/06/16 06:28:18;;;;;;;6.88;2.50;;;;;;;;;;5010657;28;20212;-61
2022/06/16 06:30:43;;;;;;;5.25;2.50;;;;;;;;;;5011449;28;20230;-61
2022/06/16 06:33:08;;;;;;;6.07;2.67;;;;;;;;;;5011892;28;20589;-61
2022/06/16 06:35:34;;;;;;;6.43;2.65;;;;;;;;;;5011808;28;20777;-61
2022/06/16 06:38:00;;;;;;;5.63;2.72;;;;;;;;;;5012275;28;20208;-61
2022/06/16 06:40:28;;;;;;;7.65;2.60;;;;;;;;;;5011788;28;20217;-61
2022/06/16 06:42:53;;;;;;;7.32;2.80;;;;;;;;;;5011901;28;20212;-61
2022/06/16 06:45:18;;;;;;;5.05;2.30;;;;;;;;;;4993453;28;20220;-61
2022/06/16 06:47:44;;;;;;;8.25;2.30;;;;;;;;;;4992380;28;20205;-61
2022/06/16 06:50:12;;;;;;;6.35;2.80;;;;;;;;;;4991470;28;20247;-62
2022/06/16 06:52:37;;;;;;;15.27;2.72;;;;;;;;;;4991229;28;20213;-61
2022/06/16 06:55:02;;;;;;;8.57;2.63;;;;;;;;;;4992096;28;20696;-61
2022/06/16 06:57:28;;;;;;;5.93;2.53;;;;;;;;;;4999874;28;20224;-60
2022/06/16 06:59:53;;;;;;;9.20;2.92;;;;;;;;;;4990953;28;20221;-61
2022/06/16 07:02:18;;;;;;;7.15;2.20;;;;;;;;;;4991568;28;20723;-62
2022/06/16 07:04:44;;;;;;;6.00;1.90;;;;;;;;;;4991695;28;20742;-61
2022/06/16 07:07:09;;;;;;;6.63;1.80;;;;;;;;;;4991564;28;20217;-61
2022/06/16 07:09:35;;;;;;;4.93;1.65;;;;;;;;;;4991134;28;20204;-61
2022/06/16 07:12:00;;;;;;;5.57;1.88;;;;;;;;;;4991950;28;20213;-61
2022/06/16 07:14:26;;;;;;;6.00;1.70;;;;;;;;;;5008151;28;20217;-61
2022/06/16 07:16:51;;;;;;;5.60;1.50;;;;;;;;;;4992245;28;20220;-61
2022/06/16 07:19:17;;;;;;;5.05;1.58;;;;;;;;;;4989759;28;20216;-61
2022/06/16 07:21:42;;;;;;;5.45;1.42;;;;;;;;;;4991680;28;20590;-60
2022/06/16 07:24:08;;;;;;;5.45;1.20;;;;;;;;;;4991523;28;20556;-61
2022/06/16 07:26:33;;;;;;;4.88;1.40;;;;;;;;;;4991753;28;20205;-61
2022/06/16 07:29:00;;;;;;;4.45;1.30;;;;;;;;;;4990669;28;20235;-61
2022/06/16 07:31:25;;;;;;;7.25;1.48;;;;;;;;;;4994957;28;20236;-61
2022/06/16 07:33:51;;;;;;;5.60;1.40;;;;;;;;;;5010813;28;20251;-61
2022/06/16 07:36:16;;;;;;;3.78;1.38;;;;;;;;;;5010675;28;20216;-62
2022/06/16 07:38:41;;;;;;;7.07;1.40;;;;;;;;;;5010985;28;20348;-61
2022/06/16 07:43:50;;;;;;;5.28;1.60;;;;;;;;;;5004577;28;20228;-61
2022/06/16 07:46:16;;;;;;;4.18;1.10;;;;;;;;;;4990770;28;20213;-62
2022/06/16 07:48:41;;;;;;;6.75;1.20;;;;;;;;;;4991495;28;20296;-62
2022/06/16 07:51:06;;;;;;;4.40;1.05;;;;;;;;;;4990909;28;20231;-61
2022/06/16 07:53:32;;;;;;;4.43;1.27;;;;;;;;;;4991439;28;20548;-61
2022/06/16 07:55:57;;;;;;;4.95;1.15;;;;;;;;;;4999187;28;20582;-61
2022/06/16 07:58:29;;;;;;;4.55;1.30;;;;;;;;;;4991729;28;20219;-60
2022/06/16 08:00:54;;;;;;;7.13;1.40;;;;;;;;;;4990982;28;20257;-62
2022/06/16 08:03:26;;;;;;;3.67;1.10;;;;;;;;;;4990796;28;20252;-60
2022/06/16 08:05:51;;;;;;;3.72;1.13;;;;;;;;;;4991815;28;20304;-61
2022/06/16 08:08:16;;;;;;;5.68;1.25;;;;;;;;;;4990830;28;20303;-60
2022/06/16 08:10:43;;;;;;;4.53;1.40;;;;;;;;;;4991630;28;20256;-61
2022/06/16 08:13:08;;;;;;;7.10;1.20;;;;;;;;;;4992695;28;20248;-61
2022/06/16 08:15:33;;;;;;;5.45;1.40;;;;;;;;;;4994921;28;20344;-61
2022/06/16 08:17:59;;;;;;;4.70;1.23;;;;;;;;;;4995061;28;20307;-61
2022/06/16 08:20:24;;;;;;;5.05;1.38;;;;;;;;;;4994724;28;20208;-61
2022/06/16 08:22:49;;;;;;;6.95;1.20;;;;;;;;;;4994820;28;20213;-60
2022/06/16 08:25:17;;;;;;;6.93;1.60;;;;;;;;;;4995180;28;20591;-60
2022/06/16 08:27:42;;;;;;;4.78;1.30;;;;;;;;;;4995498;28;20271;-60
2022/06/16 08:30:09;;;;;;;3.47;1.30;;;;;;;;;;4992710;28;20206;-60
2022/06/16 08:32:34;;;;;;;6.45;1.30;;;;;;;;;;5007373;28;20274;-61
2022/06/16 08:35:00;;;;;;;3.75;1.60;;;;;;;;;;5013916;28;20942;-61
2022/06/16 08:37:25;;;;;;;4.30;1.42;;;;;;;;;;5014245;28;20208;-61
2022/06/16 08:39:51;;;;;;;4.78;1.48;;;;;;;;;;5014571;28;20208;-61
2022/06/16 08:42:20;;;;;;;4.35;1.40;;;;;;;;;;5013942;28;20767;-61
2022/06/16 08:44:47;;;;;;;2.95;1.20;;;;;;;;;;4998959;28;20217;-61
2022/06/16 08:47:13;;;;;;;4.63;1.20;;;;;;;;;;4993886;28;20221;-62
2022/06/16 08:49:44;;;;;;;6.30;1.52;;;;;;;;;;4994115;28;20589;-61
2022/06/16 08:52:16;;;;;;;3.55;1.23;;;;;;;;;;4994396;28;20224;-61
2022/06/16 08:54:42;;;;;;;5.60;1.38;;;;;;;;;;4994805;28;20229;-61
2022/06/16 08:57:25;;;;;;;4.68;1.30;;;;;;;;;;5009761;28;20224;-60
2022/06/16 08:59:51;;;;;;;4.28;1.23;;;;;;;;;;4994214;28;20229;-61
2022/06/16 09:02:18;;;;;;;4.38;1.10;;;;;;;;;;4993595;28;20347;-61
2022/06/16 09:04:48;;;;;;;7.88;1.70;;;;;;;;;;4992777;28;20209;-61
2022/06/16 09:07:29;;;;;;;2.83;1.10;;;;;;;;;;4994278;28;20239;-61
2022/06/16 09:10:14;;;;;;;4.80;1.73;;;;;;;;;;4994329;28;20209;-61
2022/06/16 09:12:58;;;;;;;3.60;1.13;;;;;;;;;;5008431;28;20213;-61
2022/06/16 09:15:24;;;;;;;4.28;1.40;;;;;;;;;;4993803;28;20688;-61
2022/06/16 09:17:54;;;;;;;6.22;1.60;;;;;;;;;;4994032;28;20213;-61
2022/06/16 09:20:22;;;;;;;4.40;1.60;;;;;;;;;;4992073;28;20221;-61
2022/06/16 09:22:55;;;;;;;5.82;1.63;;;;;;;;;;4994229;28;20217;-61
2022/06/16 09:25:20;;;;;;;3.53;1.40;;;;;;;;;;4991883;28;20225;-61
2022/06/16 09:27:48;;;;;;;4.65;1.50;;;;;;;;;;4994247;28;20268;-61
2022/06/16 09:30:16;;;;;;;3.78;1.13;;;;;;;;;;4992574;28;20210;-61
2022/06/16 09:32:44;;;;;;;5.40;1.48;;;;;;;;;;5007338;28;20216;-61
2022/06/16 09:35:10;;;;;;;5.30;1.33;;;;;;;;;;5011156;28;20227;-61
2022/06/16 09:37:41;;;;;;;3.45;1.38;;;;;;;;;;5013507;28;20208;-61
2022/06/16 09:40:10;;;;;;;4.25;1.40;;;;;;;;;;5012437;28;20209;-63
2022/06/16 09:42:38;;;;;;;3.67;1.48;;;;;;;;;;5012356;28;20209;-61
2022/06/16 09:45:06;;;;;;;5.63;1.50;;;;;;;;;;4996429;28;20210;-61
2022/06/16 09:47:34;;;;;;;7.15;1.60;;;;;;;;;;4991653;28;20691;-61
2022/06/16 09:50:00;;;;;;;3.13;1.30;;;;;;;;;;4992099;28;20274;-61
2022/06/16 09:52:29;;;;;;;4.97;1.50;;;;;;;;;;4999622;28;20267;-61
2022/06/16 09:54:55;;;;;;;6.45;1.58;;;;;;;;;;4992381;28;20245;-60
2022/06/16 09:57:35;;;;;;;7.47;1.75;;;;;;;;;;4999887;28;20221;-61
2022/06/16 10:00:09;;;;;;;3.55;1.40;;;;;;;;;;4990894;28;20224;-63
2022/06/16 10:02:41;;;;;;;5.82;1.85;;;;;;;;;;4993025;28;20287;-61
2022/06/16 10:05:11;;;;;;;4.82;1.60;;;;;;;;;;4991535;28;20213;-61
2022/06/16 10:07:41;;;;;;;3.05;1.50;;;;;;;;;;4991661;28;20213;-61
2022/06/16 10:10:09;;;;;;;3.50;1.80;;;;;;;;;;4992827;28;20266;-62
2022/06/16 10:12:39;;;;;;;6.95;2.10;;;;;;;;;;4991966;28;20224;-61
2022/06/16 10:15:09;;;;;;;5.50;1.60;;;;;;;;;;4990844;28;20221;-61
2022/06/16 10:17:34;;;;;;;3.65;1.63;;;;;;;;;;4992717;28;20217;-61
2022/06/16 10:20:00;;;;;;;5.60;1.80;;;;;;;;;;5011521;28;20212;-61
2022/06/16 10:22:25;;;;;;;3.88;2.03;;;;;;;;;;5011517;28;20208;-61
2022/06/16 10:24:54;;;;;;;3.58;1.70;;;;;;;;;;5027240;28;20205;-61
2022/06/16 10:27:19;;;;;;;6.20;1.92;;;;;;;;;;5011213;28;20213;-61
2022/06/16 10:29:53;;;;;;;4.90;1.70;;;;;;;;;;5011857;28;20267;-61
2022/06/16 10:32:19;;;;;;;6.13;2.38;;;;;;;;;;5008835;28;20236;-61
2022/06/16 10:34:44;;;;;;;6.18;2.03;;;;;;;;;;5010723;28;20777;-61
2022/06/16 10:37:10;;;;;;;4.45;2.00;;;;;;;;;;5010503;28;20212;-62
2022/06/16 10:39:38;;;;;;;5.18;2.10;;;;;;;;;;5011318;28;20577;-60
2022/06/16 10:42:03;;;;;;;7.60;2.00;;;;;;;;;;5010581;28;20216;-60
2022/06/16 10:44:29;;;;;;;6.32;2.17;;;;;;;;;;5011647;28;20196;-60
2022/06/16 10:46:56;;;;;;;5.82;2.20;;;;;;;;;;5010372;28;20212;-61
2022/06/16 10:49:22;;;;;;;5.15;2.28;;;;;;;;;;5009372;28;20216;-61
2022/06/16 10:51:53;;;;;;;5.97;2.33;;;;;;;;;;5011642;28;20205;-61
2022/06/16 10:54:18;;;;;;;6.80;1.90;;;;;;;;;;5011246;28;20213;-61
2022/06/16 10:56:44;;;;;;;7.22;2.20;;;;;;;;;;5016362;28;20628;-61
2022/06/16 10:59:15;;;;;;;6.80;2.35;;;;;;;;;;5010608;28;20220;-61
2022/06/16 11:01:47;;;;;;;5.53;2.30;;;;;;;;;;5011973;28;20695;-60
2022/06/16 11:04:14;;;;;;;7.32;2.20;;;;;;;;;;5011155;28;20311;-61
2022/06/16 11:06:43;;;;;;;5.53;2.10;;;;;;;;;;5010664;28;20458;-60
2022/06/16 11:09:09;;;;;;;5.13;2.00;;;;;;;;;;5009999;28;20271;-61
2022/06/16 11:11:40;;;;;;;5.10;2.30;;;;;;;;;;5010128;28;20212;-60
2022/06/16 11:14:06;;;;;;;5.38;2.47;;;;;;;;;;5011351;28;20250;-61
2022/06/16 11:16:32;;;;;;;3.25;1.88;;;;;;;;;;5012088;28;20232;-61
2022/06/16 11:18:58;;;;;;;4.68;2.30;;;;;;;;;;5011313;28;20223;-60
2022/06/16 11:21:25;;;;;;;6.60;2.22;;;;;;;;;;5010920;28;20209;-61
2022/06/16 11:23:52;;;;;;;5.45;2.20;;;;;;;;;;5011253;28;20216;-60
2022/06/16 11:26:19;;;;;;;5.45;1.88;;;;;;;;;;5011142;28;20212;-61
2022/06/16 11:28:46;;;;;;;6.30;2.33;;;;;;;;;;5011556;28;20243;-61
2022/06/16 11:31:19;;;;;;;5.40;2.17;;;;;;;;;;5010753;28;20307;-60
2022/06/16 11:36:37;;;;;;;6.88;2.17;;;;;;;;;;5011178;28;20231;-61
2022/06/16 11:39:02;;;;;;;6.05;2.30;;;;;;;;;;5009023;28;20228;-61
2022/06/16 11:41:27;;;;;;;5.07;2.15;;;;;;;;;;5011637;28;20251;-61
2022/06/16 11:43:53;;;;;;;8.30;2.50;;;;;;;;;;5004678;28;20580;-61
2022/06/16 11:46:29;;;;;;;4.70;1.90;;;;;;;;;;4991135;28;20664;-60
2022/06/16 11:48:54;;;;;;;8.43;2.22;;;;;;;;;;4992914;28;20275;-60
2022/06/16 11:51:31;;;;;;;6.38;2.42;;;;;;;;;;4995371;28;20213;-61
2022/06/16 11:54:00;;;;;;;5.72;2.38;;;;;;;;;;4995621;28;20217;-61
2022/06/16 11:56:39;;;;;;;5.22;2.10;;;;;;;;;;5002225;28;20233;-60
2022/06/16 11:59:19;;;;;;;5.82;2.42;;;;;;;;;;4994876;28;20295;-61
2022/06/16 12:01:46;;;;;;;5.22;2.00;;;;;;;;;;4995329;28;20237;-61
2022/06/16 12:04:26;;;;;;;5.35;2.42;;;;;;;;;;4995307;28;20237;-61
2022/06/16 12:07:02;;;;;;;6.28;2.20;;;;;;;;;;4994064;28;20208;-61
2022/06/16 12:09:46;;;;;;;5.40;2.20;;;;;;;;;;5001433;28;20271;-61
2022/06/16 12:12:11;;;;;;;4.10;2.00;;;;;;;;;;4995101;28;20216;-61
2022/06/16 12:14:41;;;;;;;5.47;2.17;;;;;;;;;;4995003;28;20229;-61
2022/06/16 12:17:10;;;;;;;5.97;2.20;;;;;;;;;;4993606;28;20213;-61
2022/06/16 12:19:42;;;;;;;6.70;2.03;;;;;;;;;;4995322;28;20588;-61
2022/06/16 12:22:14;;;;;;;7.28;2.10;;;;;;;;;;4991637;28;20221;-62
2022/06/16 12:24:46;;;;;;;7.72;2.92;;;;;;;;;;5013161;28;20212;-61
2022/06/16 12:27:14;;;;;;;5.30;2.10;;;;;;;;;;5014031;28;20216;-61
2022/06/16 12:29:51;;;;;;;5.18;2.40;;;;;;;;;;5014866;28;20267;-61
2022/06/16 12:32:20;;;;;;;6.40;2.20;;;;;;;;;;5013114;28;20295;-61
2022/06/16 12:34:54;;;;;;;5.97;2.15;;;;;;;;;;5014127;28;20236;-61
2022/06/16 12:37:21;;;;;;;5.30;2.03;;;;;;;;;;5012711;28;20223;-61
2022/06/16 12:39:51;;;;;;;5.72;2.20;;;;;;;;;;5013299;28;20220;-61
2022/06/16 12:42:17;;;;;;;4.68;2.30;;;;;;;;;;5012643;28;20216;-61
2022/06/16 12:44:44;;;;;;;7.03;2.33;;;;;;;;;;5000646;28;20215;-61
2022/06/16 12:47:11;;;;;;;6.85;2.17;;;;;;;;;;4994443;28;20213;-61
2022/06/16 12:49:37;;;;;;;5.40;2.00;;;;;;;;;;4993103;28;20209;-61
2022/06/16 12:52:07;;;;;;;6.22;2.40;;;;;;;;;;4992751;28;20224;-61
2022/06/16 12:54:37;;;;;;;5.40;2.33;;;;;;;;;;4993432;28;20584;-61
2022/06/16 12:57:09;;;;;;;4.47;2.08;;;;;;;;;;5000783;28;20210;-61
2022/06/16 12:59:36;;;;;;;5.50;2.05;;;;;;;;;;4994121;28;20209;-61
2022/06/16 13:02:01;;;;;;;5.10;1.80;;;;;;;;;;5011764;28;20225;-61
2022/06/16 13:04:27;;;;;;;5.88;2.30;;;;;;;;;;5012117;28;20569;-60
2022/06/16 13:06:53;;;;;;;6.40;2.53;;;;;;;;;;5013133;28;20506;-61
2022/06/16 13:09:18;;;;;;;5.63;2.00;;;;;;;;;;5013179;28;20219;-61
2022/06/16 13:11:46;;;;;;;5.65;2.28;;;;;;;;;;5013936;28;20216;-62
2022/06/16 13:14:13;;;;;;;6.25;2.40;;;;;;;;;;5013534;28;20212;-61
2022/06/16 13:16:39;;;;;;;5.93;1.88;;;;;;;;;;5013350;28;20207;-61
2022/06/16 13:19:06;;;;;;;7.65;2.50;;;;;;;;;;5013226;28;20212;-62
2022/06/16 13:21:32;;;;;;;4.40;2.30;;;;;;;;;;5013712;28;20200;-61
2022/06/16 13:24:02;;;;;;;5.60;2.42;;;;;;;;;;5012288;28;20221;-61
2022/06/16 13:26:29;;;;;;;5.72;2.22;;;;;;;;;;5013117;28;20616;-61
2022/06/16 13:29:01;;;;;;;5.40;2.13;;;;;;;;;;5012351;28;20579;-61
2022/06/16 13:31:29;;;;;;;5.45;2.20;;;;;;;;;;5012630;28;20205;-61
2022/06/16 13:33:54;;;;;;;5.78;2.60;;;;;;;;;;5013361;28;20213;-61
2022/06/16 13:36:22;;;;;;;4.72;2.10;;;;;;;;;;5013318;28;20231;-62
2022/06/16 13:38:48;;;;;;;5.38;2.05;;;;;;;;;;5013227;28;20267;-61
2022/06/16 13:41:32;;;;;;;4.05;1.90;;;;;;;;;;5011573;28;20220;-61
2022/06/16 13:44:06;;;;;;;4.50;2.00;;;;;;;;;;5013167;28;20303;-61
2022/06/16 13:46:49;;;;;;;4.82;1.92;;;;;;;;;;5012448;28;20234;-61
2022/06/16 13:49:25;;;;;;;6.63;2.40;;;;;;;;;;5011723;28;20619;-61
2022/06/16 13:51:50;;;;;;;5.25;2.20;;;;;;;;;;5012700;28;20698;-61
2022/06/16 13:54:16;;;;;;;6.30;2.30;;;;;;;;;;5012434;28;20220;-61
2022/06/16 13:56:42;;;;;;;5.80;1.95;;;;;;;;;;5012771;28;20651;-60
2022/06/16 13:59:10;;;;;;;3.92;1.85;;;;;;;;;;5012303;28;20638;-61
2022/06/16 14:01:55;;;;;;;3.10;1.88;;;;;;;;;;5006151;28;20232;-60
2022/06/16 14:04:21;;;;;;;4.93;2.25;;;;;;;;;;5012578;28;20303;-60
2022/06/16 14:06:49;;;;;;;4.88;1.83;;;;;;;;;;5010882;28;20225;-61
2022/06/16 14:09:17;;;;;;;7.45;2.15;;;;;;;;;;5010873;28;20208;-60
2022/06/16 14:11:44;;;;;;;6.13;2.10;;;;;;;;;;5010944;28;20251;-61
2022/06/16 14:14:11;;;;;;;7.13;2.30;;;;;;;;;;5009865;28;20231;-61
2022/06/16 14:16:43;;;;;;;5.20;1.80;;;;;;;;;;5012413;28;20216;-61
2022/06/16 14:19:11;;;;;;;3.78;1.65;;;;;;;;;;5012311;28;20290;-60
2022/06/16 14:21:41;;;;;;;5.63;2.00;;;;;;;;;;5011535;28;20205;-61
2022/06/16 14:24:08;;;;;;;6.13;2.40;;;;;;;;;;5009569;28;20637;-61
2022/06/16 14:26:33;;;;;;;5.50;2.03;;;;;;;;;;5010952;28;20216;-60
2022/06/16 14:29:00;;;;;;;4.00;1.98;;;;;;;;;;5010982;28;20220;-60
2022/06/16 14:31:34;;;;;;;5.13;2.00;;;;;;;;;;5011193;28;20718;-61
2022/06/16 14:34:01;;;;;;;5.30;2.00;;;;;;;;;;5009665;28;20598;-61
2022/06/16 14:36:34;;;;;;;6.10;2.05;;;;;;;;;;4998968;28;20274;-61
2022/06/16 14:39:03;;;;;;;4.05;2.08;;;;;;;;;;4992221;28;20311;-60
2022/06/16 14:41:31;;;;;;;6.30;2.15;;;;;;;;;;5002778;28;20226;-61
2022/06/16 14:44:01;;;;;;;4.25;1.95;;;;;;;;;;5004671;28;20213;-61
2022/06/16 14:46:31;;;;;;;5.72;2.28;;;;;;;;;;4999590;28;20620;-61
2022/06/16 14:48:59;;;;;;;7.60;2.20;;;;;;;;;;4990930;28;20221;-60
2022/06/16 14:51:26;;;;;;;6.97;3.03;;;;;;;;;;4990640;28;20209;-61
2022/06/16 14:53:56;;;;;;;4.78;2.10;;;;;;;;;;4991311;28;20676;-60
2022/06/16 14:56:22;;;;;;;6.68;2.63;;;;;;;;;;4998442;28;20221;-61
2022/06/16 14:58:49;;;;;;;6.50;2.40;;;;;;;;;;4992208;28;20240;-61
2022/06/16 15:01:15;;;;;;;7.82;2.53;;;;;;;;;;4989183;28;20224;-61
2022/06/16 15:03:42;;;;;;;4.63;2.00;;;;;;;;;;4996019;28;20217;-61
2022/06/16 15:06:08;;;;;;;6.85;2.30;;;;;;;;;;4991325;28;20228;-61
2022/06/16 15:08:33;;;;;;;5.10;2.30;;;;;;;;;;4999208;28;20224;-61
2022/06/16 15:10:59;;;;;;;6.40;2.50;;;;;;;;;;5019928;28;20209;-61
2022/06/16 15:13:26;;;;;;;6.60;2.38;;;;;;;;;;5001270;28;20209;-62